Time;durP1;ratioP1;P1;durP2;ratioP2;P2;SDS_P1;SDS_P2;PMS_P1;PMS_P2;Temp;Humidity;BMP_temperature;BMP_pressure;BME280_temperature;BME280_humidity;BME280_pressure;Samples;Min_cycle;Max_cycle;Signal;HPM_P1;HPM_P2
2022/08/22 00:02:27;;;;;;;7.07;3.80;;;15.80;85.30;;;;;;4924069;29;20287;-68
2022/08/22 00:05:12;;;;;;;6.20;3.13;;;15.90;85.50;;;;;;4918917;28;20730;-68
2022/08/22 00:07:59;;;;;;;8.50;3.60;;;15.80;84.90;;;;;;4902980;29;20814;-68
2022/08/22 00:10:42;;;;;;;7.57;3.27;;;15.80;85.10;;;;;;4901366;29;20660;-68
2022/08/22 00:13:21;;;;;;;10.23;3.97;;;15.80;84.90;;;;;;4922405;29;20310;-68
2022/08/22 00:16:12;;;;;;;8.93;3.73;;;15.80;85.00;;;;;;4925763;29;20288;-68
2022/08/22 00:18:52;;;;;;;7.27;4.03;;;15.70;85.30;;;;;;4907830;29;20291;-68
2022/08/22 00:21:18;;;;;;;9.90;4.73;;;15.70;85.30;;;;;;4937761;28;20296;-68
2022/08/22 00:24:07;;;;;;;7.07;4.10;;;15.70;85.90;;;;;;4923673;29;20302;-68
2022/08/22 00:26:50;;;;;;;8.67;3.83;;;15.70;85.60;;;;;;4923493;29;20079;-68
2022/08/22 00:29:24;;;;;;;7.40;3.83;;;15.60;85.30;;;;;;4926984;29;20852;-68
2022/08/22 00:32:13;;;;;;;6.53;4.20;;;15.60;84.90;;;;;;4917314;29;20287;-68
2022/08/22 00:35:18;;;;;;;10.63;4.23;;;15.60;84.70;;;;;;4917924;29;20056;-68
2022/08/22 00:37:55;;;;;;;9.20;3.57;;;15.60;84.80;;;;;;4906323;29;20307;-68
2022/08/22 00:40:48;;;;;;;9.33;4.47;;;15.60;85.40;;;;;;4918999;29;20804;-68
2022/08/22 00:43:25;;;;;;;9.37;4.43;;;15.60;85.50;;;;;;4923979;29;20310;-68
2022/08/22 00:46:10;;;;;;;7.63;4.20;;;15.60;85.60;;;;;;4922862;29;20298;-68
2022/08/22 00:48:58;;;;;;;13.23;4.80;;;15.60;85.20;;;;;;4921529;29;20312;-68
2022/08/22 00:51:43;;;;;;;9.13;4.10;;;15.60;85.00;;;;;;4920501;29;20292;-68
2022/08/22 00:54:09;;;;;;;;;;;15.50;85.10;;;;;;4928312;29;20283;-68
2022/08/22 00:57:13;;;;;;;9.77;4.50;;;15.50;84.80;;;;;;4928071;29;19926;-68
2022/08/22 01:00:00;;;;;;;8.43;4.13;;;15.40;84.60;;;;;;4914840;28;20055;-68
2022/08/22 01:02:50;;;;;;;8.03;3.80;;;15.40;84.30;;;;;;4927951;29;20676;-68
2022/08/22 01:05:54;;;;;;;8.03;4.40;;;15.30;84.30;;;;;;4930193;29;20367;-68
2022/08/22 01:08:44;;;;;;;8.33;4.27;;;15.30;84.20;;;;;;4929971;29;20391;-68
2022/08/22 01:11:31;;;;;;;9.17;4.30;;;15.20;84.40;;;;;;4915475;29;20375;-68
2022/08/22 01:14:18;;;;;;;10.00;5.10;;;15.10;84.40;;;;;;4909086;29;20292;-68
2022/08/22 01:17:19;;;;;;;8.20;4.60;;;15.10;84.50;;;;;;4930252;29;20287;-68
2022/08/22 01:19:54;;;;;;;7.97;4.57;;;15.00;84.60;;;;;;4914090;29;20296;-68
2022/08/22 01:22:38;;;;;;;7.77;3.90;;;14.90;84.60;;;;;;4926122;29;20918;-68
2022/08/22 01:25:26;;;;;;;7.83;4.10;;;14.90;84.70;;;;;;4919475;29;20290;-68
2022/08/22 01:28:22;;;;;;;6.67;4.87;;;14.80;84.80;;;;;;4923666;29;20644;-68
2022/08/22 01:31:10;;;;;;;8.23;4.00;;;14.80;84.90;;;;;;4907910;29;20276;-68
2022/08/22 01:34:00;;;;;;;7.63;4.43;;;14.70;84.90;;;;;;4924233;29;20306;-68
2022/08/22 01:36:45;;;;;;;11.27;4.27;;;14.60;85.00;;;;;;4926314;29;20288;-68
2022/08/22 01:39:52;;;;;;;8.48;5.07;;;14.60;85.00;;;;;;4924324;29;20299;-68
2022/08/22 01:42:39;;;;;;;9.23;4.83;;;14.50;85.20;;;;;;4927888;29;20535;-68
2022/08/22 01:45:11;;;;;;;7.87;4.30;;;14.50;85.20;;;;;;4929268;29;20731;-68
2022/08/22 01:47:45;;;;;;;9.47;4.20;;;14.40;85.30;;;;;;4924512;29;20300;-68
2022/08/22 01:50:32;;;;;;;6.53;4.32;;;14.40;85.40;;;;;;4913146;29;20855;-68
2022/08/22 01:53:15;;;;;;;7.50;4.47;;;14.40;85.30;;;;;;4924461;29;20044;-68
2022/08/22 01:55:59;;;;;;;9.30;4.23;;;14.30;85.10;;;;;;4920176;29;20303;-68
2022/08/22 01:58:31;;;;;;;10.90;4.03;;;14.30;85.10;;;;;;4932455;29;20287;-68
2022/08/22 02:01:20;;;;;;;7.77;4.37;;;14.30;85.10;;;;;;4925249;29;20379;-68
2022/08/22 02:04:46;;;;;;;7.27;3.80;;;14.20;85.10;;;;;;4921147;29;20287;-68
2022/08/22 02:07:25;;;;;;;6.17;3.90;;;14.20;84.80;;;;;;4849761;29;20294;-68
2022/08/22 02:10:27;;;;;;;5.70;3.70;;;14.20;84.80;;;;;;4871715;29;20305;-68
2022/08/22 02:13:12;;;;;;;9.03;3.53;;;14.10;84.90;;;;;;4923267;29;20719;-68
2022/08/22 02:15:37;;;;;;;6.87;3.80;;;14.10;84.90;;;;;;4925168;29;20291;-68
2022/08/22 02:18:09;;;;;;;9.93;3.90;;;14.10;85.00;;;;;;4915637;29;20295;-68
2022/08/22 02:20:40;;;;;;;6.83;4.17;;;14.10;85.30;;;;;;4923636;29;20150;-68
2022/08/22 02:23:34;;;;;;;10.27;4.50;;;14.10;85.50;;;;;;4907561;29;20345;-68
2022/08/22 02:26:03;;;;;;;7.20;4.33;;;14.10;85.90;;;;;;4920608;29;20312;-68
2022/08/22 02:28:37;;;;;;;8.10;5.43;;;14.10;86.10;;;;;;4926351;29;20323;-68
2022/08/22 02:31:33;;;;;;;8.40;5.30;;;14.10;86.20;;;;;;4913591;29;20294;-68
2022/08/22 02:34:14;;;;;;;8.70;4.85;;;14.10;86.40;;;;;;4911212;29;20146;-68
2022/08/22 02:36:45;;;;;;;9.70;4.57;;;14.10;86.40;;;;;;4929228;29;20178;-68
2022/08/22 02:39:33;;;;;;;8.53;4.50;;;14.10;86.60;;;;;;4928343;29;20295;-68
2022/08/22 02:42:25;;;;;;;7.50;4.20;;;14.00;86.60;;;;;;4911017;29;20815;-68
2022/08/22 02:44:56;;;;;;;9.03;4.40;;;14.00;86.40;;;;;;4900922;29;20633;-68
2022/08/22 02:47:40;;;;;;;6.83;4.73;;;14.00;86.60;;;;;;4922438;29;20685;-68
2022/08/22 02:50:18;;;;;;;9.83;5.87;;;14.00;86.60;;;;;;4923393;29;21216;-68
2022/08/22 02:52:50;;;;;;;9.33;4.63;;;14.00;86.60;;;;;;4903947;29;20320;-68
2022/08/22 02:55:31;;;;;;;11.73;4.73;;;13.90;86.80;;;;;;4924956;29;20346;-68
2022/08/22 02:58:10;;;;;;;7.30;4.57;;;13.90;86.70;;;;;;4912338;29;20771;-68
2022/08/22 03:01:02;;;;;;;6.97;4.37;;;13.90;86.80;;;;;;4926891;29;20700;-68
2022/08/22 03:03:34;;;;;;;8.67;5.50;;;13.80;86.80;;;;;;4910607;29;20419;-68
2022/08/22 03:06:32;;;;;;;7.50;4.00;;;13.80;87.30;;;;;;4906512;29;21243;-68
2022/08/22 03:09:13;;;;;;;8.43;4.50;;;13.70;87.00;;;;;;4921166;29;20403;-68
2022/08/22 03:11:47;;;;;;;9.80;5.17;;;13.70;87.00;;;;;;4921371;29;20279;-68
2022/08/22 03:14:34;;;;;;;10.30;4.40;;;13.60;86.80;;;;;;4928031;29;20626;-68
2022/08/22 03:17:23;;;;;;;5.87;3.60;;;13.60;86.90;;;;;;4924400;29;20669;-68
2022/08/22 03:20:12;;;;;;;7.33;3.87;;;13.60;86.90;;;;;;4909096;29;20298;-68
2022/08/22 03:22:50;;;;;;;7.57;4.33;;;13.60;86.90;;;;;;4923815;29;20292;-68
2022/08/22 03:25:42;;;;;;;5.63;3.80;;;13.50;86.90;;;;;;4928107;29;20315;-68
2022/08/22 03:28:14;;;;;;;7.57;4.20;;;13.50;86.70;;;;;;4910373;29;20656;-68
2022/08/22 03:30:56;;;;;;;9.07;4.33;;;13.50;86.70;;;;;;4918734;29;20287;-68
2022/08/22 03:33:26;;;;;;;9.27;4.77;;;13.50;86.80;;;;;;4911809;29;20354;-68
2022/08/22 03:35:58;;;;;;;7.43;4.30;;;13.50;86.90;;;;;;4912186;29;20442;-68
2022/08/22 03:38:33;;;;;;;8.33;4.53;;;13.40;86.90;;;;;;4922769;29;20941;-68
2022/08/22 03:41:22;;;;;;;8.23;4.40;;;13.40;87.00;;;;;;4909019;29;20293;-68
2022/08/22 03:44:03;;;;;;;9.63;4.07;;;13.40;87.00;;;;;;4925442;29;20123;-68
2022/08/22 03:47:02;;;;;;;6.27;4.40;;;13.40;87.10;;;;;;4909917;29;20374;-68
2022/08/22 03:49:51;;;;;;;9.07;3.70;;;13.40;87.00;;;;;;4919024;29;20858;-69
2022/08/22 03:53:06;;;;;;;10.07;4.87;;;13.40;87.00;;;;;;4906813;29;20350;-68
2022/08/22 03:55:35;;;;;;;7.23;4.30;;;13.30;87.00;;;;;;4912162;29;20657;-68
2022/08/22 03:58:42;;;;;;;8.90;4.97;;;13.30;86.90;;;;;;4904919;29;20630;-68
2022/08/22 04:01:41;;;;;;;5.93;4.10;;;13.30;87.20;;;;;;4881663;29;20341;-68
2022/08/22 04:04:10;;;;;;;8.93;4.83;;;13.30;87.20;;;;;;4919810;29;20769;-68
2022/08/22 04:06:45;;;;;;;10.60;5.47;;;13.30;87.20;;;;;;4921348;29;20688;-68
2022/08/22 04:09:28;;;;;;;11.32;4.90;;;13.30;87.20;;;;;;4925133;29;20339;-68
2022/08/22 04:12:29;;;;;;;9.73;5.03;;;13.30;87.40;;;;;;4909398;29;20040;-68
2022/08/22 04:15:10;;;;;;;8.80;4.87;;;13.30;87.60;;;;;;4924415;29;20355;-68
2022/08/22 04:18:03;;;;;;;13.37;4.90;;;13.40;87.80;;;;;;4904742;29;20287;-68
2022/08/22 04:21:06;;;;;;;9.77;5.27;;;13.40;87.90;;;;;;4922209;29;20291;-68
2022/08/22 04:24:05;;;;;;;7.83;4.30;;;13.40;87.90;;;;;;4931265;29;20284;-68
2022/08/22 04:26:37;;;;;;;11.80;4.73;;;13.30;87.90;;;;;;4906894;29;20319;-68
2022/08/22 04:29:12;;;;;;;8.13;4.23;;;13.40;87.80;;;;;;4908077;29;21062;-68
2022/08/22 04:31:49;;;;;;;11.53;5.33;;;13.40;87.90;;;;;;4923625;29;20287;-69
2022/08/22 04:34:40;;;;;;;9.80;5.00;;;13.40;87.90;;;;;;4927717;29;20323;-68
2022/08/22 04:37:19;;;;;;;10.40;4.70;;;13.50;88.10;;;;;;4928421;29;20323;-68
2022/08/22 04:39:48;;;;;;;8.93;4.60;;;13.50;88.20;;;;;;4913608;29;20431;-68
2022/08/22 04:42:25;;;;;;;6.87;3.67;;;13.40;88.10;;;;;;4925304;29;20665;-68
2022/08/22 04:45:07;;;;;;;10.53;4.33;;;13.50;88.20;;;;;;4928805;29;20427;-68
2022/08/22 04:47:50;;;;;;;9.63;4.50;;;13.40;88.20;;;;;;4923668;29;20283;-68
2022/08/22 04:50:22;;;;;;;12.20;4.77;;;13.40;88.20;;;;;;4910768;29;20311;-68
2022/08/22 04:53:06;;;;;;;12.57;4.40;;;13.40;88.00;;;;;;4910775;29;20323;-68
2022/08/22 04:55:51;;;;;;;11.20;4.47;;;13.50;88.10;;;;;;4907615;29;20292;-68
2022/08/22 04:58:48;;;;;;;10.70;4.47;;;13.50;88.20;;;;;;4926330;29;20276;-68
2022/08/22 05:01:36;;;;;;;8.03;4.50;;;13.50;88.20;;;;;;4908578;29;20701;-68
2022/08/22 05:04:07;;;;;;;6.93;4.40;;;13.60;88.30;;;;;;4928274;29;20282;-68
2022/08/22 05:06:39;;;;;;;9.83;4.13;;;13.60;88.20;;;;;;4919862;29;20276;-68
2022/08/22 05:09:11;;;;;;;4.80;3.60;;;13.60;88.20;;;;;;4930896;29;20509;-68
2022/08/22 05:11:39;;;;;;;8.30;3.97;;;13.60;88.20;;;;;;4929464;29;20311;-68
2022/08/22 05:14:14;;;;;;;7.07;4.03;;;13.60;88.20;;;;;;4930351;29;20290;-68
2022/08/22 05:16:42;;;;;;;5.70;4.03;;;13.70;88.20;;;;;;4927539;29;20809;-68
2022/08/22 05:19:18;;;;;;;6.70;4.10;;;13.70;88.20;;;;;;4925588;29;20052;-68
2022/08/22 05:21:46;;;;;;;7.30;4.57;;;13.80;88.20;;;;;;4927201;29;20319;-68
2022/08/22 05:24:41;;;;;;;8.13;4.27;;;13.90;88.80;;;;;;4914476;29;20800;-68
2022/08/22 05:27:14;;;;;;;8.87;4.20;;;13.90;88.90;;;;;;4929825;29;20767;-68
2022/08/22 05:29:44;;;;;;;7.70;3.57;;;14.00;89.40;;;;;;4923715;29;20341;-68
2022/08/22 05:32:34;;;;;;;8.80;4.43;;;14.00;89.80;;;;;;4928175;29;20859;-68
2022/08/22 05:35:02;;;;;;;6.37;4.57;;;14.10;89.60;;;;;;4926465;29;21450;-68
2022/08/22 05:37:33;;;;;;;7.93;4.60;;;14.20;89.60;;;;;;4914462;29;20288;-68
2022/08/22 05:39:59;;;;;;;8.30;4.20;;;14.40;89.50;;;;;;4909480;29;20319;-69
2022/08/22 05:42:36;;;;;;;9.80;4.50;;;14.50;89.50;;;;;;4897308;29;20379;-68
2022/08/22 05:45:05;;;;;;;6.17;3.97;;;14.60;89.20;;;;;;4909832;29;20798;-68
2022/08/22 05:47:38;;;;;;;4.90;3.47;;;14.70;89.20;;;;;;4912677;29;20299;-68
2022/08/22 05:50:06;;;;;;;5.93;4.30;;;14.90;89.00;;;;;;4922831;29;20336;-68
2022/08/22 05:52:32;;;;;;;5.73;3.13;;;15.00;89.00;;;;;;4926620;29;20303;-69
2022/08/22 05:55:16;;;;;;;6.30;3.50;;;15.10;88.90;;;;;;4905920;29;20306;-69
2022/08/22 05:57:48;;;;;;;5.87;3.90;;;15.20;88.80;;;;;;4926985;29;20048;-68
2022/08/22 06:00:20;;;;;;;5.97;2.97;;;15.30;88.70;;;;;;4904123;29;20376;-69
2022/08/22 06:02:52;;;;;;;7.43;3.10;;;15.40;88.60;;;;;;4924623;29;20284;-68
2022/08/22 06:05:29;;;;;;;6.60;2.60;;;15.50;88.30;;;;;;4927089;29;20533;-68
2022/08/22 06:08:18;;;;;;;5.63;3.13;;;15.60;88.40;;;;;;4923724;29;20298;-69
2022/08/22 06:10:52;;;;;;;4.60;3.33;;;15.60;88.20;;;;;;4910388;29;20299;-68
2022/08/22 06:13:41;;;;;;;5.70;3.37;;;15.70;88.20;;;;;;4908218;29;20283;-68
2022/08/22 06:16:17;;;;;;;6.10;3.40;;;15.70;88.40;;;;;;4907251;29;20299;-68
2022/08/22 06:18:44;;;;;;;6.67;3.87;;;15.80;88.40;;;;;;4922694;29;20267;-68
2022/08/22 06:21:17;;;;;;;8.83;4.30;;;15.80;88.40;;;;;;4895773;29;20286;-68
2022/08/22 06:23:56;;;;;;;7.20;3.70;;;15.80;88.30;;;;;;4922622;29;20282;-68
2022/08/22 06:26:27;;;;;;;7.17;3.80;;;15.90;88.60;;;;;;4924019;29;20306;-69
2022/08/22 06:28:56;;;;;;;6.53;4.50;;;16.00;88.60;;;;;;4924489;29;20299;-69
2022/08/22 06:31:31;;;;;;;7.30;4.43;;;16.00;88.70;;;;;;4920938;29;20276;-69
2022/08/22 06:34:18;;;;;;;8.60;4.88;;;16.00;88.70;;;;;;4925256;29;20288;-69
2022/08/22 06:36:47;;;;;;;7.90;4.30;;;16.10;88.90;;;;;;4927430;29;20039;-69
2022/08/22 06:39:25;;;;;;;8.57;4.43;;;16.10;88.80;;;;;;4923073;29;20843;-68
2022/08/22 06:42:03;;;;;;;7.10;4.13;;;16.20;88.70;;;;;;4925776;29;20284;-69
2022/08/22 06:44:51;;;;;;;9.77;4.70;;;16.20;88.80;;;;;;4910643;29;20298;-69
2022/08/22 06:47:35;;;;;;;6.57;4.30;;;16.30;88.80;;;;;;4919230;29;20295;-69
2022/08/22 06:50:12;;;;;;;7.07;4.30;;;16.30;88.70;;;;;;4922179;29;21159;-69
2022/08/22 06:52:58;;;;;;;7.63;4.47;;;16.30;88.80;;;;;;4928131;29;20807;-69
2022/08/22 06:55:26;;;;;;;8.33;4.60;;;16.40;88.60;;;;;;4924844;29;20299;-69
2022/08/22 06:58:02;;;;;;;9.00;4.27;;;16.40;88.60;;;;;;4921554;29;20286;-69
2022/08/22 07:00:33;;;;;;;11.27;5.30;;;16.40;88.60;;;;;;4928049;29;21140;-69
2022/08/22 07:03:20;;;;;;;8.63;4.60;;;16.40;88.60;;;;;;4926108;29;20684;-69
2022/08/22 07:05:46;;;;;;;12.67;5.77;;;16.40;88.60;;;;;;4919629;29;20295;-69
2022/08/22 07:08:20;;;;;;;9.93;5.40;;;16.50;88.70;;;;;;4911209;29;20295;-69
2022/08/22 07:10:56;;;;;;;10.38;5.40;;;16.50;88.50;;;;;;4921714;29;20039;-69
2022/08/22 07:13:24;;;;;;;11.40;5.90;;;16.50;88.60;;;;;;4924031;29;20076;-69
2022/08/22 07:15:58;;;;;;;9.90;5.90;;;16.50;88.40;;;;;;4927380;29;20291;-69
2022/08/22 07:18:26;;;;;;;9.33;5.27;;;16.50;88.40;;;;;;4910792;29;20302;-69
2022/08/22 07:20:58;;;;;;;6.73;4.53;;;16.50;88.20;;;;;;4915225;29;20287;-69
2022/08/22 07:23:27;;;;;;;10.63;6.13;;;16.50;88.20;;;;;;4921372;29;20292;-69
2022/08/22 07:26:55;;;;;;;11.93;5.70;;;16.60;88.20;;;;;;4925128;29;20287;-69
2022/08/22 07:29:30;;;;;;;10.73;6.10;;;16.80;88.40;;;;;;4841416;29;20318;-69
2022/08/22 07:32:04;;;;;;;10.10;6.03;;;17.00;88.40;;;;;;4840169;29;20285;-69
2022/08/22 07:34:36;;;;;;;10.27;6.17;;;17.20;87.60;;;;;;4887113;29;20284;-69
2022/08/22 07:37:24;;;;;;;13.80;5.77;;;17.40;87.70;;;;;;4916672;29;20423;-69
2022/08/22 07:40:02;;;;;;;10.83;5.00;;;17.70;87.30;;;;;;4913173;29;20355;-69
2022/08/22 07:42:41;;;;;;;7.87;4.90;;;17.90;86.90;;;;;;4924322;29;20649;-69
2022/08/22 07:45:14;;;;;;;10.27;4.67;;;18.20;86.10;;;;;;4925391;29;20284;-69
2022/08/22 07:47:58;;;;;;;12.30;4.13;;;18.40;84.70;;;;;;4920582;29;20287;-69
2022/08/22 07:50:30;;;;;;;7.40;3.33;;;18.60;82.50;;;;;;4907705;29;20419;-69
2022/08/22 07:53:15;;;;;;;10.20;3.43;;;18.60;82.50;;;;;;4904322;29;20303;-69
2022/08/22 07:55:43;;;;;;;16.52;4.70;;;18.70;81.70;;;;;;4909112;29;20287;-69
2022/08/22 07:58:12;;;;;;;8.67;3.77;;;18.80;80.70;;;;;;4913119;29;20054;-69
2022/08/22 08:00:44;;;;;;;12.77;4.10;;;18.90;80.60;;;;;;4906694;29;20295;-69
2022/08/22 08:03:11;;;;;;;14.03;4.37;;;19.00;80.30;;;;;;4933475;29;20279;-69
2022/08/22 08:05:40;;;;;;;10.40;3.50;;;19.10;80.20;;;;;;4929321;29;20131;-69
2022/08/22 08:08:23;;;;;;;11.20;3.20;;;19.20;79.80;;;;;;4916192;29;20282;-69
2022/08/22 08:10:50;;;;;;;8.77;3.70;;;19.30;78.10;;;;;;4932415;29;20298;-69
2022/08/22 08:13:22;;;;;;;10.73;4.40;;;19.40;78.50;;;;;;4928888;29;20051;-69
2022/08/22 08:15:49;;;;;;;9.83;3.17;;;19.50;78.40;;;;;;4928894;29;20535;-69
2022/08/22 08:18:20;;;;;;;7.03;3.60;;;19.60;77.70;;;;;;4898678;29;20095;-69
2022/08/22 08:21:02;;;;;;;10.03;3.50;;;19.70;77.90;;;;;;4928405;29;20054;-69
2022/08/22 08:23:34;;;;;;;10.73;4.10;;;19.80;77.40;;;;;;4926515;29;20040;-69
2022/08/22 08:26:03;;;;;;;8.53;3.37;;;19.90;76.60;;;;;;4926667;29;20122;-69
2022/08/22 08:28:36;;;;;;;8.77;3.27;;;20.00;75.10;;;;;;4904720;29;20493;-69
2022/08/22 08:31:23;;;;;;;9.53;3.27;;;20.00;75.60;;;;;;4927815;29;20416;-69
2022/08/22 08:34:18;;;;;;;12.10;3.30;;;20.10;76.00;;;;;;4923908;29;20071;-69
2022/08/22 08:36:58;;;;;;;12.10;2.60;;;20.20;75.40;;;;;;4925298;29;20098;-69
2022/08/22 08:39:30;;;;;;;7.73;2.23;;;20.40;75.10;;;;;;4923643;29;20142;-69
2022/08/22 08:42:13;;;;;;;7.87;2.50;;;20.50;75.40;;;;;;4929556;29;20048;-70
2022/08/22 08:44:57;;;;;;;8.67;2.37;;;20.70;75.10;;;;;;4913365;29;20044;-69
2022/08/22 08:47:40;;;;;;;8.50;3.10;;;20.90;74.70;;;;;;4924535;29;20063;-69
2022/08/22 08:51:03;;;;;;;8.20;2.57;;;21.00;73.50;;;;;;4913381;29;20130;-69
2022/08/22 08:53:46;;;;;;;7.83;2.33;;;21.20;72.80;;;;;;4895041;29;20401;-70
2022/08/22 08:56:21;;;;;;;6.43;2.07;;;21.20;72.10;;;;;;4895737;29;20511;-70
2022/08/22 08:59:30;;;;;;;10.38;2.45;;;21.20;71.60;;;;;;4919828;29;20048;-70
2022/08/22 09:02:14;;;;;;;6.63;1.40;;;21.20;70.90;;;;;;4935807;28;20084;-69
2022/08/22 09:05:17;;;;;;;5.83;1.47;;;21.30;70.80;;;;;;4927699;29;20055;-70
2022/08/22 09:07:52;;;;;;;6.97;2.37;;;21.40;68.20;;;;;;4923113;29;20052;-69
2022/08/22 09:10:27;;;;;;;6.35;1.17;;;21.50;69.10;;;;;;4928363;29;20138;-70
2022/08/22 09:13:05;;;;;;;6.70;1.43;;;21.60;67.00;;;;;;4922376;29;20054;-69
2022/08/22 09:15:54;;;;;;;8.00;1.50;;;21.60;66.40;;;;;;4936976;29;20047;-70
2022/08/22 09:18:34;;;;;;;7.13;1.43;;;21.60;67.30;;;;;;4929390;29;20543;-70
2022/08/22 09:21:14;;;;;;;5.63;1.53;;;21.70;66.40;;;;;;4942505;29;20083;-69
2022/08/22 09:23:58;;;;;;;6.90;1.67;;;21.80;66.80;;;;;;4926743;29;20151;-69
2022/08/22 09:26:37;;;;;;;8.15;1.70;;;21.90;66.60;;;;;;4908206;29;20051;-70
2022/08/22 09:29:34;;;;;;;3.90;1.17;;;22.00;66.00;;;;;;4917764;29;20139;-69
2022/08/22 09:32:00;;;;;;;5.67;1.30;;;22.10;64.80;;;;;;4913822;29;20047;-69
2022/08/22 09:34:50;;;;;;;4.33;1.30;;;22.20;64.80;;;;;;4921152;29;20500;-69
2022/08/22 09:37:25;;;;;;;5.47;1.43;;;22.40;63.90;;;;;;4925403;29;20067;-69
2022/08/22 09:40:11;;;;;;;6.13;1.57;;;22.40;63.50;;;;;;4919413;29;20051;-69
2022/08/22 09:42:43;;;;;;;6.90;1.23;;;22.50;63.20;;;;;;4925448;29;20500;-70
2022/08/22 09:45:34;;;;;;;4.47;1.40;;;22.50;63.00;;;;;;4912975;29;20385;-69
2022/08/22 09:48:18;;;;;;;4.90;1.47;;;22.60;61.20;;;;;;4910137;29;20464;-69
2022/08/22 09:51:17;;;;;;;5.87;1.47;;;22.70;61.40;;;;;;4927759;29;20044;-69
2022/08/22 09:53:49;;;;;;;5.80;1.90;;;22.70;60.00;;;;;;4932630;29;20495;-69
2022/08/22 09:56:20;;;;;;;6.20;1.60;;;22.70;60.20;;;;;;4930879;29;20062;-69
2022/08/22 09:58:46;;;;;;;8.17;2.07;;;22.80;60.90;;;;;;4927494;29;20060;-69
2022/08/22 10:01:37;;;;;;;6.80;1.73;;;22.80;60.90;;;;;;4926997;29;20051;-69
2022/08/22 10:04:06;;;;;;;8.13;1.53;;;22.90;60.90;;;;;;4933324;29;20051;-69
2022/08/22 10:06:46;;;;;;;6.37;1.63;;;23.00;61.10;;;;;;4924369;29;20051;-68
2022/08/22 10:09:21;;;;;;;3.97;1.27;;;23.00;60.90;;;;;;4930019;29;20050;-69
2022/08/22 10:12:08;;;;;;;5.43;1.60;;;23.20;59.90;;;;;;4907497;29;20115;-69
2022/08/22 10:15:03;;;;;;;4.87;1.50;;;23.20;58.30;;;;;;4922911;29;20070;-69
2022/08/22 10:17:35;;;;;;;5.53;1.33;;;23.20;58.20;;;;;;4905134;29;20047;-69
2022/08/22 10:20:05;;;;;;;6.30;1.20;;;23.30;59.30;;;;;;4930267;29;20567;-69
2022/08/22 10:22:52;;;;;;;5.57;1.10;;;23.40;58.20;;;;;;4925471;29;20062;-69
2022/08/22 10:25:21;;;;;;;5.83;1.20;;;23.50;58.00;;;;;;4925620;29;20059;-69
2022/08/22 10:28:04;;;;;;;4.70;1.00;;;23.60;57.10;;;;;;4926274;29;20055;-69
2022/08/22 10:30:53;;;;;;;4.13;1.10;;;23.70;55.40;;;;;;4920506;29;20382;-69
2022/08/22 10:33:54;;;;;;;4.67;1.50;;;23.80;56.50;;;;;;4905490;29;20040;-69
2022/08/22 10:36:58;;;;;;;5.00;1.70;;;23.90;55.30;;;;;;4900148;29;20052;-69
2022/08/22 10:39:29;;;;;;;3.87;1.10;;;23.90;55.80;;;;;;4924868;29;20066;-69
2022/08/22 10:42:00;;;;;;;5.87;1.53;;;23.90;56.00;;;;;;4926645;29;20127;-69
2022/08/22 10:44:47;;;;;;;5.20;1.37;;;23.90;55.40;;;;;;4911103;29;20376;-69
2022/08/22 10:47:34;;;;;;;5.00;1.50;;;24.00;55.90;;;;;;4926541;29;20039;-69
2022/08/22 10:50:14;;;;;;;4.97;1.20;;;24.00;55.50;;;;;;4925420;29;20044;-69
2022/08/22 10:52:47;;;;;;;5.37;1.40;;;23.90;56.70;;;;;;4906767;29;20115;-69
2022/08/22 10:55:21;;;;;;;4.20;1.50;;;24.00;56.20;;;;;;4930599;29;20048;-69
2022/08/22 10:57:59;;;;;;;5.90;1.48;;;24.20;55.40;;;;;;4926485;29;20409;-69
2022/08/22 11:00:55;;;;;;;4.33;1.60;;;24.20;56.20;;;;;;4928057;29;20075;-69
2022/08/22 11:03:27;;;;;;;;;;;24.30;55.20;;;;;;4929981;29;20043;-69
2022/08/22 11:05:59;;;;;;;4.00;1.13;;;24.60;55.90;;;;;;4928166;29;19974;-69
2022/08/22 11:08:52;;;;;;;3.87;1.37;;;24.90;54.90;;;;;;4910199;29;20051;-69
2022/08/22 11:11:38;;;;;;;3.83;1.00;;;25.20;53.70;;;;;;4919491;29;20115;-70
2022/08/22 11:14:36;;;;;;;5.60;1.43;;;25.40;53.60;;;;;;4927314;29;20101;-69
2022/08/22 11:17:16;;;;;;;5.67;1.53;;;25.60;52.50;;;;;;4907875;29;20066;-69
2022/08/22 11:19:50;;;;;;;4.47;1.30;;;25.80;53.00;;;;;;4905306;29;20043;-69
2022/08/22 11:22:16;;;;;;;;;;;25.80;51.40;;;;;;4925022;29;20052;-69
2022/08/22 11:24:59;;;;;;;4.37;1.70;;;25.60;50.10;;;;;;4931889;29;19918;-69
2022/08/22 11:28:10;;;;;;;8.03;1.60;;;25.50;51.50;;;;;;4910914;29;20063;-69
2022/08/22 11:31:18;;;;;;;6.00;1.30;;;25.50;52.30;;;;;;4893792;29;20416;-69
2022/08/22 11:34:10;;;;;;;3.87;1.07;;;25.70;52.70;;;;;;4921074;29;20107;-69
2022/08/22 11:36:51;;;;;;;5.20;1.50;;;25.90;51.20;;;;;;4912608;29;20055;-69
2022/08/22 11:39:34;;;;;;;5.60;1.30;;;25.70;51.20;;;;;;4921693;29;20074;-69
2022/08/22 11:42:12;;;;;;;4.77;1.43;;;25.40;51.10;;;;;;4911169;29;20046;-69
2022/08/22 11:44:49;;;;;;;8.13;1.73;;;25.30;52.20;;;;;;4926842;29;20044;-69
2022/08/22 11:47:18;;;;;;;6.67;1.23;;;25.30;52.00;;;;;;4927919;29;20043;-69
2022/08/22 11:50:11;;;;;;;4.03;1.50;;;25.30;52.10;;;;;;4923242;29;20539;-69
2022/08/22 11:52:43;;;;;;;4.47;1.03;;;25.20;52.10;;;;;;4910499;29;20098;-68
2022/08/22 11:55:24;;;;;;;5.80;1.40;;;25.10;52.40;;;;;;4924002;29;20060;-68
2022/08/22 11:57:54;;;;;;;5.60;1.30;;;25.10;52.10;;;;;;4927968;29;20059;-68
2022/08/22 12:00:58;;;;;;;5.00;1.50;;;25.30;53.10;;;;;;4928001;29;20492;-68
2022/08/22 12:03:42;;;;;;;6.50;1.50;;;25.80;52.30;;;;;;4914430;29;20052;-68
2022/08/22 12:06:28;;;;;;;5.43;1.37;;;26.10;51.40;;;;;;4923760;29;20042;-68
2022/08/22 12:09:23;;;;;;;4.93;1.43;;;26.40;52.10;;;;;;4907799;29;20343;-68
2022/08/22 12:12:18;;;;;;;6.85;1.58;;;26.50;50.70;;;;;;4910357;29;20056;-68
2022/08/22 12:15:00;;;;;;;4.97;1.20;;;26.30;50.10;;;;;;4905211;29;20132;-68
2022/08/22 12:17:39;;;;;;;5.73;1.47;;;26.10;50.90;;;;;;4939961;28;20039;-68
2022/08/22 12:20:38;;;;;;;5.13;1.33;;;26.00;51.60;;;;;;4908208;29;20787;-68
2022/08/22 12:23:32;;;;;;;4.00;1.40;;;26.10;51.20;;;;;;4920109;29;20112;-68
2022/08/22 12:26:16;;;;;;;7.03;1.50;;;26.30;50.00;;;;;;4924541;29;20038;-69
2022/08/22 12:29:01;;;;;;;7.25;1.42;;;26.30;50.10;;;;;;4915381;29;20286;-69
2022/08/22 12:31:42;;;;;;;8.07;1.73;;;26.10;50.10;;;;;;4922244;29;20838;-69
2022/08/22 12:34:20;;;;;;;4.37;1.43;;;25.90;50.30;;;;;;4923732;29;20044;-69
2022/08/22 12:37:19;;;;;;;6.07;1.60;;;25.80;51.10;;;;;;4925059;29;20484;-69
2022/08/22 12:40:10;;;;;;;6.73;1.40;;;25.80;50.60;;;;;;4924819;29;20044;-70
2022/08/22 12:43:03;;;;;;;5.00;1.23;;;25.60;50.00;;;;;;4923424;29;20043;-70
2022/08/22 12:45:48;;;;;;;5.37;1.40;;;25.50;50.50;;;;;;4922070;29;20044;-70
2022/08/22 12:48:34;;;;;;;4.18;1.45;;;25.20;51.80;;;;;;4926342;29;20913;-70
2022/08/22 12:51:19;;;;;;;5.40;1.30;;;25.10;51.90;;;;;;4929472;29;20051;-70
2022/08/22 12:54:00;;;;;;;6.07;1.90;;;25.30;50.80;;;;;;4925879;29;20044;-70
2022/08/22 12:56:52;;;;;;;5.17;1.57;;;25.60;52.30;;;;;;4924850;29;20525;-70
2022/08/22 12:59:21;;;;;;;4.70;1.23;;;25.90;51.70;;;;;;4909862;29;21571;-70
2022/08/22 13:01:49;;;;;;;5.13;1.03;;;26.20;51.30;;;;;;4912333;29;20052;-70
2022/08/22 13:04:32;;;;;;;6.60;1.60;;;26.50;50.30;;;;;;4906816;29;20127;-70
2022/08/22 13:07:07;;;;;;;4.80;1.30;;;27.00;49.00;;;;;;4928236;29;20043;-70
2022/08/22 13:09:39;;;;;;;4.22;1.38;;;27.20;48.30;;;;;;4924140;29;20143;-69
2022/08/22 13:12:35;;;;;;;4.77;1.63;;;27.30;49.10;;;;;;4926587;29;20032;-69
2022/08/22 13:15:20;;;;;;;7.93;1.67;;;27.40;48.30;;;;;;4906522;29;20040;-70
2022/08/22 13:17:49;;;;;;;5.13;1.33;;;27.60;47.60;;;;;;4924187;29;20048;-69
2022/08/22 13:20:33;;;;;;;4.87;1.20;;;27.60;47.90;;;;;;4914001;29;20047;-69
2022/08/22 13:23:04;;;;;;;3.77;1.30;;;27.70;47.80;;;;;;4929260;29;20044;-70
2022/08/22 13:26:08;;;;;;;4.00;1.10;;;27.90;47.40;;;;;;4926858;29;20050;-70
2022/08/22 13:28:43;;;;;;;4.20;1.30;;;27.70;46.00;;;;;;4912477;29;20051;-70
2022/08/22 13:31:22;;;;;;;3.67;1.00;;;27.30;46.90;;;;;;4928654;29;20456;-70
2022/08/22 13:33:50;;;;;;;4.77;1.40;;;26.90;47.10;;;;;;4911994;29;20047;-70
2022/08/22 13:36:20;;;;;;;5.07;1.30;;;26.60;48.10;;;;;;4914088;29;20485;-70
2022/08/22 13:39:14;;;;;;;4.23;1.23;;;26.50;48.70;;;;;;4907314;29;20039;-70
2022/08/22 13:41:52;;;;;;;3.93;1.27;;;26.70;48.30;;;;;;4910635;29;20047;-70
2022/08/22 13:44:23;;;;;;;3.47;1.13;;;27.00;48.10;;;;;;4928048;29;20047;-70
2022/08/22 13:46:50;;;;;;;5.17;1.50;;;27.00;48.20;;;;;;4913309;29;20114;-70
2022/08/22 13:49:19;;;;;;;5.00;1.40;;;26.80;48.10;;;;;;4941535;28;20047;-70
2022/08/22 13:52:22;;;;;;;4.67;1.30;;;26.80;48.10;;;;;;4924085;29;20046;-70
2022/08/22 13:55:05;;;;;;;5.20;1.77;;;26.90;47.80;;;;;;4929463;28;20126;-70
2022/08/22 13:57:45;;;;;;;3.23;1.37;;;27.20;47.20;;;;;;4924783;29;20878;-70
2022/08/22 14:00:17;;;;;;;4.33;1.33;;;27.50;46.30;;;;;;4910001;29;20035;-70